Weather at Barker Field [CLOSED]

Public forecast

Using degrees Celsius for public forecast. Weather courtesy of forecast.io.

Closest aviation weather report (METAR) to Barker Field

Closest report is Billy Bishop Toronto City Centre Airport, 5.8 nm (10.8 km) SSE.

2024/05/21 14:00 (retrieved 21 minutes ago)

CYTZ 211400Z AUTO 07010KT 9SM FEW130 22/16 A2987 RMK SLP115 DENSITY ALT 1200FT

Closest aviation forecast (TAF) to Barker Field

Closest forecast is Billy Bishop Toronto City Centre Airport, 5.8 nm (10.8 km) SSE.

2024/05/21 14:42 (retrieved 0 seconds ago)

TAF CYTZ 211340Z 2114/2214 07007KT P6SM BKN070 FM211700 07010KT P6SM SCT060 BECMG 2118/2120 21010KT FM212200 25010KT P6SM SCT060 BECMG 2200/2202 07007KT FM221200 10006KT P6SM SCT060 BECMG 2212/2214 14008KT RMK FCST BASED ON AUTO OBS NXT FCST BY 212000Z